createdAt,value
2022-11-21T00:01:31.488Z,-0.22
2022-11-21T00:04:01.800Z,-0.20
2022-11-21T00:06:30.555Z,-0.16
2022-11-21T00:08:59.160Z,-0.16
2022-11-21T00:11:27.876Z,-0.13
2022-11-21T00:13:56.558Z,-0.11
2022-11-21T00:16:25.272Z,-0.09
2022-11-21T00:18:53.975Z,-0.06
2022-11-21T00:21:24.163Z,-0.04
2022-11-21T00:23:54.471Z,-0.03
2022-11-21T00:26:23.108Z,0.00
2022-11-21T00:28:51.734Z,0.03
2022-11-21T00:31:23.441Z,-0.02
2022-11-21T00:33:52.112Z,0.07
2022-11-21T00:36:20.813Z,0.08
2022-11-21T00:38:50.873Z,0.09
2022-11-21T00:41:19.549Z,0.16
2022-11-21T00:43:48.174Z,0.20
2022-11-21T00:46:16.862Z,0.21
2022-11-21T00:48:45.565Z,0.23
2022-11-21T00:51:14.222Z,0.24
2022-11-21T00:53:43.221Z,0.27
2022-11-21T00:56:13.295Z,0.29
2022-11-21T00:58:41.984Z,0.30
2022-11-21T01:01:12.869Z,0.30
2022-11-21T01:03:46.214Z,0.31
2022-11-21T01:06:16.880Z,0.34
2022-11-21T01:08:46.643Z,0.37
2022-11-21T01:11:19.085Z,0.39
2022-11-21T01:13:48.717Z,0.40
2022-11-21T01:16:21.868Z,0.40
2022-11-21T01:18:50.597Z,0.43
2022-11-21T01:21:24.190Z,0.46
2022-11-21T01:23:53.253Z,0.39
2022-11-21T01:26:24.996Z,0.37
2022-11-21T01:28:54.026Z,0.38
2022-11-21T01:31:24.956Z,0.43
2022-11-21T01:33:54.124Z,0.43
2022-11-21T01:36:25.131Z,0.46
2022-11-21T01:38:55.679Z,0.47
2022-11-21T01:41:31.266Z,0.48
2022-11-21T01:44:00.194Z,0.50
2022-11-21T01:46:29.217Z,0.50
2022-11-21T01:49:03.576Z,0.49
2022-11-21T01:51:39.897Z,0.48
2022-11-21T01:54:12.739Z,0.47
2022-11-21T01:56:47.121Z,0.46
2022-11-21T01:59:25.749Z,0.46
2022-11-21T02:01:56.783Z,0.46
2022-11-21T02:04:29.801Z,0.46
2022-11-21T02:06:59.634Z,0.44
2022-11-21T02:09:29.249Z,0.49
2022-11-21T02:12:05.560Z,0.46
2022-11-21T02:14:36.213Z,0.43
2022-11-21T02:17:10.813Z,0.46
2022-11-21T02:19:48.881Z,0.45
2022-11-21T02:22:26.291Z,0.45
2022-11-21T02:25:03.090Z,0.46
2022-11-21T02:27:31.954Z,0.47
2022-11-21T02:30:01.061Z,0.48
2022-11-21T02:32:35.768Z,0.48
2022-11-21T02:35:05.212Z,0.50
2022-11-21T02:37:36.722Z,0.51
2022-11-21T02:40:10.947Z,0.49
2022-11-21T02:42:52.353Z,0.15
2022-11-21T02:45:28.127Z,0.35
2022-11-21T02:48:03.383Z,0.38
2022-11-21T02:50:34.761Z,-0.08
2022-11-21T02:53:03.515Z,0.34
2022-11-21T02:55:33.678Z,0.29
2022-11-21T02:58:05.092Z,0.23
2022-11-21T03:00:35.029Z,0.18
2022-11-21T03:03:03.774Z,0.24
2022-11-21T03:05:33.127Z,0.23
2022-11-21T03:08:01.790Z,0.20
2022-11-21T03:10:31.907Z,0.08
2022-11-21T03:13:01.864Z,0.11
2022-11-21T03:15:32.062Z,0.11
2022-11-21T03:18:02.842Z,0.16
2022-11-21T03:20:31.868Z,0.03
2022-11-21T03:23:00.480Z,0.01
2022-11-21T03:25:29.141Z,-0.04
2022-11-21T03:27:59.181Z,-0.08
2022-11-21T03:30:28.492Z,-0.11
2022-11-21T03:32:58.448Z,-0.11
2022-11-21T03:35:27.724Z,0.02
2022-11-21T03:37:56.422Z,0.05
2022-11-21T03:40:27.073Z,0.12
2022-11-21T03:42:55.718Z,0.11
2022-11-21T03:45:25.742Z,0.21
2022-11-21T03:47:54.446Z,0.18
2022-11-21T03:50:23.094Z,0.16
2022-11-21T03:52:51.780Z,0.07
2022-11-21T03:55:20.745Z,0.03
2022-11-21T03:57:49.597Z,0.11
2022-11-21T04:00:19.293Z,0.13
2022-11-21T04:02:49.442Z,0.20
2022-11-21T04:05:18.364Z,0.21
2022-11-21T04:07:47.582Z,0.27
2022-11-21T04:10:16.943Z,0.34
2022-11-21T04:12:45.659Z,0.26
2022-11-21T04:15:14.400Z,0.24
2022-11-21T04:17:43.079Z,0.18
2022-11-21T04:20:13.927Z,0.18
2022-11-21T04:22:43.574Z,0.08
2022-11-21T04:25:13.746Z,0.06
2022-11-21T04:27:42.593Z,-0.01
2022-11-21T04:30:29.143Z,0.07
2022-11-21T04:32:58.588Z,0.03
2022-11-21T04:35:29.035Z,0.05
2022-11-21T04:37:58.070Z,-0.03
2022-11-21T04:40:26.718Z,0.00
2022-11-21T04:42:55.352Z,-0.05
2022-11-21T04:45:23.995Z,0.01
2022-11-21T04:47:52.712Z,0.01
2022-11-21T04:50:22.342Z,-0.05
2022-11-21T04:52:57.117Z,0.04
2022-11-21T04:55:29.990Z,0.08
2022-11-21T04:57:58.636Z,0.12
2022-11-21T05:00:27.408Z,0.06
2022-11-21T05:02:56.001Z,0.05
2022-11-21T05:05:24.623Z,0.05
2022-11-21T05:07:54.617Z,0.09
2022-11-21T05:10:23.223Z,0.12
2022-11-21T05:13:16.300Z,0.06
2022-11-21T05:15:45.495Z,0.17
2022-11-21T05:18:14.081Z,0.23
2022-11-21T05:20:43.037Z,0.24
2022-11-21T05:23:13.050Z,0.19
2022-11-21T05:25:41.822Z,0.26
2022-11-21T05:28:10.509Z,0.26
2022-11-21T05:30:39.247Z,0.21
2022-11-21T05:33:07.836Z,0.23
2022-11-21T05:35:42.958Z,0.29
2022-11-21T05:38:13.452Z,0.24
2022-11-21T05:40:42.138Z,0.26
2022-11-21T05:43:35.183Z,0.28
2022-11-21T05:46:03.822Z,0.01
2022-11-21T05:48:34.217Z,0.04
2022-11-21T05:51:02.877Z,0.02
2022-11-21T05:53:33.202Z,-0.03
2022-11-21T05:56:05.385Z,-0.11
2022-11-21T05:58:34.557Z,-0.10
2022-11-21T06:01:03.736Z,-0.16
2022-11-21T06:03:34.905Z,-0.18
2022-11-21T06:06:05.647Z,-0.13
2022-11-21T06:08:38.412Z,-0.30
2022-11-21T06:11:10.056Z,-0.23
2022-11-21T06:13:39.400Z,-0.16
2022-11-21T06:16:10.092Z,-0.11
2022-11-21T06:18:41.497Z,-0.17
2022-11-21T06:21:15.488Z,-0.28
2022-11-21T06:23:46.170Z,-0.11
2022-11-21T06:26:16.675Z,-0.02
2022-11-21T06:28:46.541Z,-0.03
2022-11-21T06:31:17.273Z,-0.10
2022-11-21T06:33:46.930Z,-0.13
2022-11-21T06:36:17.366Z,-0.07
2022-11-21T06:38:48.053Z,-0.08
2022-11-21T06:41:18.418Z,-0.49
2022-11-21T06:43:47.248Z,0.03
2022-11-21T06:46:16.825Z,-0.28
2022-11-21T06:48:46.039Z,0.09
2022-11-21T06:51:18.074Z,0.13
2022-11-21T06:53:48.960Z,0.18
2022-11-21T06:56:18.410Z,0.14
2022-11-21T06:58:46.939Z,0.07
2022-11-21T07:01:15.736Z,-0.17
2022-11-21T07:03:44.392Z,-0.08
2022-11-21T07:06:13.038Z,-0.11
2022-11-21T07:08:41.798Z,-0.03
2022-11-21T07:11:29.047Z,0.07
2022-11-21T07:13:56.675Z,0.06
2022-11-21T07:16:26.486Z,0.00
2022-11-21T07:18:55.176Z,-0.16
2022-11-21T07:21:24.032Z,-0.29
2022-11-21T07:23:52.711Z,-0.29
2022-11-21T07:26:22.665Z,-0.01
2022-11-21T07:28:51.263Z,-0.34
2022-11-21T07:31:19.901Z,-0.14
2022-11-21T07:33:48.556Z,-0.15
2022-11-21T07:36:17.218Z,-0.16
2022-11-21T07:38:48.214Z,-0.23
2022-11-21T07:41:16.833Z,-0.01
2022-11-21T07:43:46.841Z,-0.07
2022-11-21T07:46:15.461Z,-0.10
2022-11-21T07:48:44.048Z,-0.16
2022-11-21T07:51:12.699Z,-0.20
2022-11-21T07:53:41.432Z,-0.10
2022-11-21T07:56:10.516Z,-0.04
2022-11-21T07:58:39.235Z,0.08
2022-11-21T08:01:09.442Z,0.18
2022-11-21T08:03:38.153Z,0.27
2022-11-21T08:06:06.999Z,0.36
2022-11-21T08:08:35.686Z,0.35
2022-11-21T08:11:06.879Z,0.28
2022-11-21T08:13:35.598Z,0.25
2022-11-21T08:16:04.838Z,0.34
2022-11-21T08:18:34.918Z,0.40
2022-11-21T08:21:04.273Z,0.35
2022-11-21T08:23:33.417Z,0.48
2022-11-21T08:26:02.108Z,0.52
2022-11-21T08:28:30.759Z,0.56
2022-11-21T08:30:59.382Z,0.62
2022-11-21T08:33:27.968Z,0.66
2022-11-21T08:35:57.953Z,0.62
2022-11-21T08:38:26.551Z,0.76
2022-11-21T08:41:13.360Z,1.00
2022-11-21T08:43:44.918Z,1.17
2022-11-21T08:46:13.600Z,1.24
2022-11-21T08:48:42.266Z,1.19
2022-11-21T08:51:12.287Z,1.14
2022-11-21T08:53:40.891Z,1.13
2022-11-21T08:56:09.449Z,1.17
2022-11-21T08:58:38.063Z,1.16
2022-11-21T09:01:06.872Z,1.18
2022-11-21T09:03:35.441Z,1.14
2022-11-21T09:06:04.013Z,1.26
2022-11-21T09:08:34.719Z,1.40
2022-11-21T09:11:06.254Z,1.43
2022-11-21T09:13:35.923Z,1.45
2022-11-21T09:16:22.830Z,1.34
2022-11-21T09:18:53.902Z,1.23
2022-11-21T09:21:22.714Z,1.17
2022-11-21T09:23:52.627Z,1.26
2022-11-21T09:26:21.240Z,1.47
2022-11-21T09:28:49.823Z,1.54
2022-11-21T09:31:18.451Z,1.57
2022-11-21T09:33:49.667Z,1.68
2022-11-21T09:36:20.805Z,1.78
2022-11-21T09:38:49.497Z,1.78
2022-11-21T09:41:44.676Z,1.61
2022-11-21T09:44:22.611Z,1.61
2022-11-21T09:46:56.457Z,1.64
2022-11-21T09:49:27.526Z,1.87
2022-11-21T09:51:58.823Z,2.19
2022-11-21T09:54:33.127Z,2.45
2022-11-21T09:57:03.337Z,2.83
2022-11-21T09:59:38.956Z,3.01
2022-11-21T10:02:15.839Z,2.94
2022-11-21T10:04:45.072Z,2.80
2022-11-21T10:07:18.092Z,2.77
2022-11-21T10:10:05.487Z,2.83
2022-11-21T10:12:45.045Z,2.64
2022-11-21T10:15:33.051Z,2.75
2022-11-21T10:18:18.133Z,2.46
2022-11-21T10:20:55.979Z,2.32
2022-11-21T10:23:45.014Z,2.54
2022-11-21T10:26:22.540Z,2.85
2022-11-21T10:29:00.777Z,2.96
2022-11-21T10:31:37.281Z,2.98
2022-11-21T10:34:11.852Z,2.72
2022-11-21T10:36:46.218Z,3.09
2022-11-21T10:39:22.687Z,3.14
2022-11-21T10:41:58.080Z,3.22
2022-11-21T10:44:47.267Z,3.27
2022-11-21T10:47:27.385Z,3.21
2022-11-21T10:50:05.170Z,3.09
2022-11-21T10:52:37.846Z,3.05
2022-11-21T10:55:10.838Z,3.10
2022-11-21T10:57:44.221Z,3.08
2022-11-21T11:00:32.219Z,3.02
2022-11-21T11:03:07.878Z,2.65
2022-11-21T11:05:37.829Z,3.27
2022-11-21T11:08:11.030Z,3.23
2022-11-21T11:10:40.893Z,3.10
2022-11-21T11:13:49.949Z,3.09
2022-11-21T11:16:22.659Z,3.30
2022-11-21T11:19:00.711Z,3.34
2022-11-21T11:21:31.355Z,3.31
2022-11-21T11:24:26.992Z,3.30
2022-11-21T11:27:01.376Z,3.23
2022-11-21T11:29:32.334Z,3.19
2022-11-21T11:32:06.180Z,2.99
2022-11-21T11:34:41.391Z,2.89
2022-11-21T11:37:14.897Z,2.67
2022-11-21T11:40:01.981Z,2.91
2022-11-21T11:43:20.445Z,2.97
2022-11-21T11:46:48.122Z,2.66
2022-11-21T11:49:28.533Z,2.35
2022-11-21T11:52:02.884Z,2.14
2022-11-21T11:54:36.058Z,1.93
2022-11-21T11:57:06.591Z,1.80
2022-11-21T11:59:40.672Z,1.71
2022-11-21T12:02:19.736Z,1.68
2022-11-21T12:04:56.727Z,1.92
2022-11-21T12:10:29.559Z,2.07
2022-11-21T12:13:05.809Z,1.99
2022-11-21T12:15:51.166Z,1.92
2022-11-21T12:18:29.888Z,2.08
2022-11-21T12:21:06.281Z,2.39
2022-11-21T12:23:40.982Z,2.69
2022-11-21T12:26:28.530Z,2.90
2022-11-21T12:29:13.235Z,3.01
2022-11-21T12:31:56.062Z,3.26
2022-11-21T12:34:40.565Z,3.44
2022-11-21T12:37:26.115Z,3.42
2022-11-21T12:40:05.148Z,3.45
2022-11-21T12:42:50.518Z,3.50
2022-11-21T12:45:32.252Z,3.46
2022-11-21T12:48:32.848Z,3.50
2022-11-21T12:52:05.836Z,3.34
2022-11-21T12:55:16.528Z,3.26
2022-11-21T12:58:00.312Z,3.08
2022-11-21T13:00:37.928Z,3.07
2022-11-21T13:03:42.769Z,2.81
2022-11-21T13:06:18.823Z,3.13
2022-11-21T13:08:51.631Z,3.24
2022-11-21T13:11:57.609Z,3.31
2022-11-21T13:14:33.251Z,3.27
2022-11-21T13:17:14.144Z,3.29
2022-11-21T13:19:50.507Z,3.25
2022-11-21T13:22:54.788Z,3.14
2022-11-21T13:25:53.697Z,3.35
2022-11-21T13:28:37.619Z,3.45
2022-11-21T13:31:31.579Z,3.52
2022-11-21T13:34:01.300Z,3.58
2022-11-21T13:36:42.063Z,3.46
2022-11-21T13:39:29.001Z,3.23
2022-11-21T13:42:30.306Z,3.07
2022-11-21T13:45:20.780Z,2.94
2022-11-21T13:48:34.799Z,2.90
2022-11-21T13:51:37.797Z,2.82
2022-11-21T13:54:43.089Z,2.74
2022-11-21T13:57:26.607Z,2.72
2022-11-21T14:00:19.882Z,2.62
2022-11-21T14:03:08.682Z,2.59
2022-11-21T14:05:54.608Z,2.59
2022-11-21T14:08:25.488Z,2.81
2022-11-21T14:10:56.249Z,2.89
2022-11-21T14:13:29.657Z,2.76
2022-11-21T14:16:20.258Z,2.46
2022-11-21T14:18:49.838Z,2.12
2022-11-21T14:21:26.844Z,1.49
2022-11-21T14:23:58.093Z,1.88
2022-11-21T14:26:27.419Z,1.85
2022-11-21T14:29:22.543Z,1.75
2022-11-21T14:31:52.545Z,1.62
2022-11-21T14:34:28.627Z,1.58
2022-11-21T14:37:00.927Z,1.61
2022-11-21T14:39:38.749Z,1.60
2022-11-21T14:42:15.801Z,1.55
2022-11-21T14:44:44.952Z,1.04
2022-11-21T14:47:25.694Z,1.56
2022-11-21T14:49:59.642Z,1.65
2022-11-21T14:52:33.762Z,1.70
2022-11-21T14:57:54.333Z,1.75
2022-11-21T15:00:57.452Z,1.77
2022-11-21T15:03:21.933Z,1.75
2022-11-21T15:11:36.185Z,1.83
2022-11-21T15:17:06.085Z,1.80
2022-11-21T15:19:36.239Z,1.75
2022-11-21T15:22:06.974Z,1.72
2022-11-21T15:24:42.958Z,1.73
2022-11-21T15:27:33.535Z,1.71
2022-11-21T15:30:27.849Z,1.74
2022-11-21T15:33:18.824Z,1.74
2022-11-21T15:35:54.544Z,1.77
2022-11-21T15:38:28.697Z,1.73
2022-11-21T15:41:02.893Z,1.71
2022-11-21T15:43:43.225Z,1.71
2022-11-21T15:46:17.509Z,1.71
2022-11-21T15:48:51.060Z,1.74
2022-11-21T15:51:44.031Z,1.74
2022-11-21T15:54:29.684Z,1.74
2022-11-21T15:56:58.531Z,1.73
2022-11-21T15:57:13.406Z,1.85
2022-11-21T15:59:27.454Z,1.77
2022-11-21T16:01:56.387Z,1.75
2022-11-21T16:04:26.209Z,1.79
2022-11-21T16:06:56.483Z,1.81
2022-11-21T16:09:25.211Z,1.83
2022-11-21T16:11:53.820Z,1.80
2022-11-21T16:14:22.397Z,1.73
2022-11-21T16:16:54.018Z,1.69
2022-11-21T16:19:22.612Z,1.78
2022-11-21T16:21:51.287Z,1.85
2022-11-21T16:24:21.410Z,1.87
2022-11-21T16:26:53.557Z,1.88
2022-11-21T16:29:22.380Z,1.92
2022-11-21T16:31:52.402Z,1.93
2022-11-21T16:34:21.535Z,1.89
2022-11-21T16:36:50.616Z,1.87
2022-11-21T16:39:20.782Z,1.90
2022-11-21T16:41:49.521Z,1.87
2022-11-21T16:44:18.413Z,1.84
2022-11-21T16:46:51.632Z,1.83
2022-11-21T16:49:20.438Z,1.78
2022-11-21T16:51:49.070Z,1.73
2022-11-21T16:54:17.775Z,1.71
2022-11-21T16:56:47.778Z,1.68
2022-11-21T16:59:16.550Z,1.66
2022-11-21T17:01:45.376Z,1.63
2022-11-21T17:04:17.250Z,1.52
2022-11-21T17:06:48.964Z,1.41
2022-11-21T17:09:18.103Z,1.30
2022-11-21T17:11:48.142Z,1.17
2022-11-21T17:14:16.806Z,0.96
2022-11-21T17:16:45.873Z,0.86
2022-11-21T17:19:16.461Z,0.78
2022-11-21T17:21:45.368Z,0.68
2022-11-21T17:24:14.368Z,0.52
2022-11-21T17:26:43.179Z,0.35
2022-11-21T17:29:13.150Z,0.12
2022-11-21T17:31:42.904Z,-0.06
2022-11-21T17:34:13.372Z,-0.21
2022-11-21T17:36:42.355Z,-0.29
2022-11-21T17:39:12.748Z,-0.35
2022-11-21T17:41:41.669Z,-0.36
2022-11-21T17:44:16.460Z,-0.31
2022-11-21T17:46:45.137Z,-0.24
2022-11-21T17:49:14.020Z,-0.19
2022-11-21T17:51:43.036Z,-0.11
2022-11-21T17:54:12.690Z,-0.07
2022-11-21T17:56:45.905Z,-0.01
2022-11-21T17:59:18.216Z,0.06
2022-11-21T18:01:47.064Z,0.11
2022-11-21T18:04:17.756Z,0.19
2022-11-21T18:06:47.078Z,0.24
2022-11-21T18:09:16.677Z,0.27
2022-11-21T18:11:46.164Z,0.25
2022-11-21T18:14:15.372Z,0.24
2022-11-21T18:16:53.312Z,0.15
2022-11-21T18:19:22.816Z,-0.04
2022-11-21T18:21:51.895Z,-0.24
2022-11-21T18:24:20.742Z,-0.34
2022-11-21T18:26:49.380Z,-0.34
2022-11-21T18:29:35.839Z,-0.41
2022-11-21T18:32:07.411Z,-0.53
2022-11-21T18:34:36.323Z,-0.64
2022-11-21T18:37:04.966Z,-0.70
2022-11-21T18:39:33.690Z,-0.76
2022-11-21T18:42:02.559Z,-0.87
2022-11-21T18:44:31.214Z,-0.98
2022-11-21T18:46:59.970Z,-1.03
2022-11-21T18:49:30.188Z,-1.06
2022-11-21T18:51:59.655Z,-1.04
2022-11-21T18:54:28.270Z,-1.12
2022-11-21T18:56:57.694Z,-1.19
2022-11-21T18:59:26.457Z,-1.24
2022-11-21T19:01:55.278Z,-1.25
2022-11-21T19:04:24.853Z,-1.22
2022-11-21T19:06:54.886Z,-1.25
2022-11-21T19:09:28.052Z,-1.31
2022-11-21T19:11:59.767Z,-1.35
2022-11-21T19:14:28.512Z,-1.41
2022-11-21T19:16:57.384Z,-1.39
2022-11-21T19:19:34.260Z,-1.35
2022-11-21T19:22:06.396Z,-1.32
2022-11-21T19:24:35.122Z,-1.37
2022-11-21T19:27:03.979Z,-1.44
2022-11-21T19:29:33.161Z,-1.47
2022-11-21T19:32:01.931Z,-1.46
2022-11-21T19:34:30.569Z,-1.50
2022-11-21T19:36:59.189Z,-1.54
2022-11-21T19:39:30.744Z,-1.58
2022-11-21T19:41:59.834Z,-1.58
2022-11-21T19:44:28.424Z,-1.59
2022-11-21T19:46:57.298Z,-1.63
2022-11-21T19:49:26.302Z,-1.71
2022-11-21T19:51:55.226Z,-1.62
2022-11-21T19:54:24.255Z,-1.66
2022-11-21T19:56:54.283Z,-1.71
2022-11-21T19:59:23.124Z,-1.79
2022-11-21T20:01:53.111Z,-1.80
2022-11-21T20:04:22.189Z,-1.81
2022-11-21T20:06:50.829Z,-1.83
2022-11-21T20:09:21.740Z,-1.89
2022-11-21T20:11:54.447Z,-1.83
2022-11-21T20:14:23.571Z,-1.73
2022-11-21T20:16:53.842Z,-1.56
2022-11-21T20:19:25.070Z,-1.65
2022-11-21T20:21:53.834Z,-1.73
2022-11-21T20:24:22.440Z,-1.83
2022-11-21T20:26:51.278Z,-1.81
2022-11-21T20:29:21.388Z,-1.80
2022-11-21T20:31:50.037Z,-1.87
2022-11-21T20:34:18.683Z,-1.78
2022-11-21T20:36:47.826Z,-1.82
2022-11-21T20:39:17.799Z,-1.88
2022-11-21T20:41:48.091Z,-1.93
2022-11-21T20:47:09.692Z,-1.95
2022-11-21T20:49:38.296Z,-1.98
2022-11-21T20:53:43.816Z,-2.02
2022-11-21T20:54:58.154Z,-2.02
2022-11-21T20:57:27.547Z,-2.00
2022-11-21T20:59:56.167Z,-2.03
2022-11-21T21:02:26.232Z,-1.98
2022-11-21T21:04:54.817Z,-2.00
2022-11-21T21:07:23.537Z,-2.05
2022-11-21T21:09:53.640Z,-2.03
2022-11-21T21:12:23.907Z,-2.05
2022-11-21T21:14:52.536Z,-2.10
2022-11-21T21:17:21.266Z,-2.15
2022-11-21T21:19:51.478Z,-2.14
2022-11-21T21:22:20.158Z,-2.14
2022-11-21T21:24:48.878Z,-2.18
2022-11-21T21:27:17.928Z,-2.21
2022-11-21T21:29:46.858Z,-2.24
2022-11-21T21:32:16.585Z,-2.31
2022-11-21T21:34:45.268Z,-2.33
2022-11-21T21:37:15.372Z,-2.37
2022-11-21T21:39:44.270Z,-2.38
2022-11-21T21:42:12.831Z,-2.44
2022-11-21T21:44:41.406Z,-2.44
2022-11-21T21:47:11.294Z,-2.39
2022-11-21T21:49:39.980Z,-2.31
2022-11-21T21:52:08.736Z,-2.35
2022-11-21T21:54:38.732Z,-2.45
2022-11-21T21:57:07.397Z,-2.55
2022-11-21T21:59:35.930Z,-2.55
2022-11-21T22:02:05.155Z,-2.56
2022-11-21T22:04:33.849Z,-2.64
2022-11-21T22:07:03.392Z,-2.60
2022-11-21T22:09:32.241Z,-2.65
2022-11-21T22:12:02.287Z,-2.60
2022-11-21T22:14:32.123Z,-2.57
2022-11-21T22:17:00.885Z,-2.59
2022-11-21T22:19:30.092Z,-2.67
2022-11-21T22:21:58.798Z,-2.71
2022-11-21T22:24:27.698Z,-2.76
2022-11-21T22:26:56.662Z,-2.69
2022-11-21T22:29:27.098Z,-2.61
2022-11-21T22:31:55.763Z,-2.61
2022-11-21T22:34:24.599Z,-2.65
2022-11-21T22:36:53.274Z,-2.57
2022-11-21T22:39:21.819Z,-2.51
2022-11-21T22:41:50.395Z,-2.51
2022-11-21T22:44:19.186Z,-2.51
2022-11-21T22:46:49.164Z,-2.49
2022-11-21T22:49:17.758Z,-2.44
2022-11-21T22:51:46.366Z,-2.46
2022-11-21T22:54:14.945Z,-2.51
2022-11-21T22:56:43.491Z,-2.51
2022-11-21T22:59:13.903Z,-2.44
2022-11-21T23:01:42.566Z,-2.42
2022-11-21T23:04:17.462Z,-2.40
2022-11-21T23:06:46.596Z,-2.47
2022-11-21T23:09:15.242Z,-2.55
2022-11-21T23:11:43.823Z,-2.55
2022-11-21T23:14:12.408Z,-2.59
2022-11-21T23:16:41.120Z,-2.62
2022-11-21T23:19:11.159Z,-2.62
2022-11-21T23:21:39.803Z,-2.67
2022-11-21T23:24:08.832Z,-2.68
2022-11-21T23:26:37.869Z,-2.64
2022-11-21T23:29:08.916Z,-2.70
2022-11-21T23:31:38.074Z,-2.63
2022-11-21T23:34:06.745Z,-2.61
2022-11-21T23:36:36.689Z,-2.63
2022-11-21T23:39:05.635Z,-2.66
2022-11-21T23:41:34.312Z,-2.58
2022-11-21T23:44:03.052Z,-2.59
2022-11-21T23:46:31.734Z,-2.58
2022-11-21T23:49:00.322Z,-2.54
2022-11-21T23:51:28.906Z,-2.51
2022-11-21T23:53:58.787Z,-2.56
2022-11-21T23:56:27.415Z,-2.59
2022-11-21T23:58:55.955Z,-2.56
